createdAt,value
2019-05-20T00:00:39.100Z,29.20
2019-05-20T00:03:10.685Z,29.00
2019-05-20T00:05:44.261Z,28.10
2019-05-20T00:08:19.069Z,27.83
2019-05-20T00:10:52.798Z,27.63
2019-05-20T00:13:25.749Z,28.77
2019-05-20T00:15:59.253Z,26.87
2019-05-20T00:18:31.866Z,27.77
2019-05-20T00:21:04.790Z,28.60
2019-05-20T00:23:39.616Z,28.83
2019-05-20T00:26:13.845Z,28.97
2019-05-20T00:28:45.892Z,27.87
2019-05-20T00:31:19.894Z,27.97
2019-05-20T00:33:53.700Z,26.87
2019-05-20T00:36:28.283Z,27.90
2019-05-20T00:39:20.987Z,26.87
2019-05-20T00:41:53.055Z,31.30
2019-05-20T00:44:25.988Z,25.93
2019-05-20T00:46:59.113Z,27.00
2019-05-20T00:49:31.159Z,24.87
2019-05-20T00:52:02.946Z,28.43
2019-05-20T00:54:37.025Z,27.67
2019-05-20T00:57:11.002Z,27.27
2019-05-20T00:59:44.846Z,25.27
2019-05-20T01:02:18.171Z,26.00
2019-05-20T01:04:49.593Z,26.50
2019-05-20T01:07:23.000Z,26.67
2019-05-20T01:09:55.782Z,26.87
2019-05-20T01:12:28.995Z,29.20
2019-05-20T01:15:01.014Z,29.80
2019-05-20T01:17:34.939Z,28.00
2019-05-20T01:20:07.651Z,29.07
2019-05-20T01:22:41.158Z,31.90
2019-05-20T01:25:14.013Z,31.83
2019-05-20T01:27:47.603Z,33.77
2019-05-20T01:30:21.970Z,34.43
2019-05-20T01:32:55.292Z,34.63
2019-05-20T01:35:28.974Z,31.33
2019-05-20T01:38:02.108Z,28.70
2019-05-20T01:40:35.280Z,29.50
2019-05-20T01:43:07.434Z,28.40
2019-05-20T01:45:40.352Z,30.17
2019-05-20T01:48:13.205Z,30.00
2019-05-20T01:50:46.279Z,29.87
2019-05-20T01:53:19.141Z,28.50
2019-05-20T01:55:51.171Z,29.50
2019-05-20T01:58:26.725Z,29.57
2019-05-20T02:00:59.220Z,28.90
2019-05-20T02:03:32.404Z,29.53
2019-05-20T02:06:06.237Z,29.03
2019-05-20T02:08:41.918Z,29.57
2019-05-20T02:11:16.247Z,26.50
2019-05-20T02:13:59.217Z,25.70
2019-05-20T02:16:33.995Z,25.83
2019-05-20T02:19:06.649Z,25.07
2019-05-20T02:21:40.420Z,24.63
2019-05-20T02:24:11.899Z,25.63
2019-05-20T02:26:43.469Z,24.27
2019-05-20T02:29:16.479Z,28.37
2019-05-20T02:31:48.300Z,25.63
2019-05-20T02:34:22.332Z,25.70
2019-05-20T02:36:55.734Z,24.47
2019-05-20T02:39:27.383Z,25.27
2019-05-20T02:42:00.407Z,26.63
2019-05-20T02:44:33.601Z,25.00
2019-05-20T02:47:07.033Z,25.47
2019-05-20T02:49:39.602Z,25.20
2019-05-20T02:52:11.566Z,24.30
2019-05-20T02:54:48.353Z,22.97
2019-05-20T02:57:20.517Z,23.00
2019-05-20T02:59:57.018Z,22.00
2019-05-20T03:02:28.611Z,21.60
2019-05-20T03:05:01.846Z,22.90
2019-05-20T03:07:34.703Z,22.60
2019-05-20T03:10:06.750Z,21.17
2019-05-20T03:12:40.496Z,22.10
2019-05-20T03:15:13.727Z,22.80
2019-05-20T03:17:45.694Z,21.93
2019-05-20T03:20:19.650Z,22.43
2019-05-20T03:22:53.431Z,21.73
2019-05-20T03:25:25.538Z,22.60
2019-05-20T03:27:58.613Z,23.43
2019-05-20T03:30:31.705Z,21.40
2019-05-20T03:33:04.764Z,22.97
2019-05-20T03:35:38.571Z,21.50
2019-05-20T03:38:10.772Z,23.20
2019-05-20T03:40:43.659Z,22.10
2019-05-20T03:43:16.541Z,23.47
2019-05-20T03:45:48.778Z,23.90
2019-05-20T03:48:22.795Z,22.00
2019-05-20T03:50:54.585Z,22.93
2019-05-20T03:53:28.693Z,22.17
2019-05-20T03:56:02.970Z,22.90
2019-05-20T03:58:36.777Z,21.90
2019-05-20T04:01:08.055Z,22.60
2019-05-20T04:03:40.725Z,22.43
2019-05-20T04:06:13.716Z,20.97
2019-05-20T04:08:46.773Z,20.93
2019-05-20T04:11:19.813Z,23.90
2019-05-20T04:13:52.939Z,23.60
2019-05-20T04:16:26.964Z,24.07
2019-05-20T04:18:58.733Z,23.50
2019-05-20T04:21:31.836Z,23.40
2019-05-20T04:24:03.872Z,24.23
2019-05-20T04:26:38.204Z,23.53
2019-05-20T04:29:11.087Z,23.40
2019-05-20T04:31:43.908Z,21.57
2019-05-20T04:34:16.869Z,20.77
2019-05-20T04:36:49.937Z,23.87
2019-05-20T04:39:22.886Z,22.90
2019-05-20T04:41:56.970Z,21.90
2019-05-20T04:44:30.511Z,23.70
2019-05-20T04:47:06.021Z,22.70
2019-05-20T04:49:38.100Z,22.30
2019-05-20T04:52:11.107Z,21.73
2019-05-20T04:54:45.635Z,22.10
2019-05-20T04:57:17.075Z,23.13
2019-05-20T04:59:50.022Z,23.10
2019-05-20T05:02:23.009Z,23.27
2019-05-20T05:04:57.146Z,23.00
2019-05-20T05:07:29.170Z,23.13
2019-05-20T05:10:12.820Z,24.10
2019-05-20T05:12:47.207Z,26.57
2019-05-20T05:15:20.193Z,25.87
2019-05-20T05:17:53.256Z,26.40
2019-05-20T05:20:26.145Z,27.93
2019-05-20T05:23:02.322Z,27.03
2019-05-20T05:25:35.955Z,32.57
2019-05-20T05:28:18.762Z,31.23
2019-05-20T05:30:50.156Z,31.73
2019-05-20T05:33:25.516Z,34.47
2019-05-20T05:36:00.333Z,34.90
2019-05-20T05:38:32.301Z,36.77
2019-05-20T05:41:04.253Z,39.53
2019-05-20T05:43:39.825Z,37.90
2019-05-20T05:46:11.139Z,38.77
2019-05-20T05:48:44.302Z,40.53
2019-05-20T05:51:17.209Z,41.57
2019-05-20T05:53:49.841Z,41.80
2019-05-20T05:56:23.309Z,38.00
2019-05-20T05:58:55.340Z,39.97
2019-05-20T06:01:29.327Z,42.33
2019-05-20T06:04:04.336Z,41.63
2019-05-20T06:06:38.481Z,41.70
2019-05-20T06:09:11.392Z,40.10
2019-05-20T06:11:46.893Z,39.40
2019-05-20T06:14:21.949Z,37.23
2019-05-20T06:16:53.298Z,41.00
2019-05-20T06:19:26.377Z,37.87
2019-05-20T06:21:58.501Z,36.50
2019-05-20T06:24:31.628Z,37.10
2019-05-20T06:27:03.529Z,36.77
2019-05-20T06:29:37.456Z,34.40
2019-05-20T06:32:11.611Z,33.67
2019-05-20T06:34:44.580Z,33.27
2019-05-20T06:37:21.610Z,29.87
2019-05-20T06:39:56.523Z,29.23
2019-05-20T06:42:29.454Z,23.50
2019-05-20T06:45:03.468Z,23.40
2019-05-20T06:47:35.586Z,22.50
2019-05-20T06:50:08.531Z,23.00
2019-05-20T06:52:41.578Z,19.70
2019-05-20T06:55:14.663Z,20.13
2019-05-20T06:57:48.590Z,18.93
2019-05-20T07:00:34.946Z,18.57
2019-05-20T07:03:06.809Z,19.43
2019-05-20T07:05:40.673Z,20.27
2019-05-20T07:08:13.558Z,19.90
2019-05-20T07:10:49.333Z,20.67
2019-05-20T07:13:22.685Z,21.83
2019-05-20T07:15:55.675Z,23.27
2019-05-20T07:18:28.676Z,23.13
2019-05-20T07:21:01.615Z,23.57
2019-05-20T07:23:34.679Z,22.40
2019-05-20T07:26:07.758Z,24.03
2019-05-20T07:28:40.660Z,25.57
2019-05-20T07:31:13.644Z,23.80
2019-05-20T07:33:46.609Z,24.77
2019-05-20T07:36:18.795Z,24.47
2019-05-20T07:38:52.874Z,21.77
2019-05-20T07:41:25.672Z,21.07
2019-05-20T07:43:58.794Z,23.80
2019-05-20T07:46:33.040Z,20.10
2019-05-20T07:49:04.878Z,22.43
2019-05-20T07:51:37.207Z,20.50
2019-05-20T07:54:09.083Z,23.07
2019-05-20T07:56:45.296Z,22.37
2019-05-20T07:59:19.129Z,20.77
2019-05-20T08:01:52.890Z,20.67
2019-05-20T08:04:26.057Z,20.80
2019-05-20T08:07:00.014Z,20.20
2019-05-20T08:09:31.851Z,19.90
2019-05-20T08:12:04.788Z,20.60
2019-05-20T08:14:36.874Z,20.00
2019-05-20T08:17:08.375Z,20.77
2019-05-20T08:19:40.974Z,19.60
2019-05-20T08:22:13.950Z,20.20
2019-05-20T08:24:47.984Z,20.00
2019-05-20T08:27:19.839Z,19.33
2019-05-20T08:29:52.028Z,19.50
2019-05-20T08:32:24.946Z,21.10
2019-05-20T08:35:00.656Z,20.20
2019-05-20T08:37:45.028Z,21.40
2019-05-20T08:40:06.264Z,20.80
2019-05-20T08:42:37.981Z,22.13
2019-05-20T08:45:11.275Z,18.70
2019-05-20T08:47:44.069Z,21.20
2019-05-20T08:50:17.056Z,21.40
2019-05-20T08:52:50.159Z,21.30
2019-05-20T08:55:23.234Z,21.50
2019-05-20T08:57:56.258Z,21.77
2019-05-20T09:00:29.017Z,19.83
2019-05-20T09:03:04.601Z,20.00
2019-05-20T09:05:38.061Z,20.33
2019-05-20T09:08:11.165Z,18.70
2019-05-20T09:10:44.425Z,17.60
2019-05-20T09:13:17.270Z,17.50
2019-05-20T09:15:50.188Z,16.00
2019-05-20T09:18:23.219Z,18.23
2019-05-20T09:20:57.120Z,18.20
2019-05-20T09:23:29.302Z,18.27
2019-05-20T09:26:00.849Z,18.23
2019-05-20T09:28:32.232Z,17.90
2019-05-20T09:31:06.609Z,19.47
2019-05-20T09:33:40.010Z,17.90
2019-05-20T09:36:14.531Z,18.53
2019-05-20T09:38:46.216Z,17.00
2019-05-20T09:41:21.977Z,17.07
2019-05-20T09:43:53.307Z,18.83
2019-05-20T09:46:25.289Z,17.43
2019-05-20T09:48:58.344Z,15.80
2019-05-20T09:51:31.524Z,15.77
2019-05-20T09:54:05.526Z,15.23
2019-05-20T09:56:38.425Z,16.50
2019-05-20T09:59:11.637Z,16.43
2019-05-20T10:01:43.457Z,14.00
2019-05-20T10:04:15.376Z,15.40
2019-05-20T10:06:48.408Z,13.40
2019-05-20T10:09:20.540Z,11.83
2019-05-20T10:11:53.615Z,10.87
2019-05-20T10:14:26.757Z,10.60
2019-05-20T10:17:00.397Z,9.27
2019-05-20T10:19:33.504Z,9.07
2019-05-20T10:22:05.489Z,9.60
2019-05-20T10:24:37.488Z,9.67
2019-05-20T10:27:09.054Z,9.20
2019-05-20T10:29:40.530Z,9.60
2019-05-20T10:32:14.591Z,7.90
2019-05-20T10:34:48.449Z,8.10
2019-05-20T10:37:20.685Z,7.33
2019-05-20T10:39:52.389Z,8.80
2019-05-20T10:42:26.403Z,7.70
2019-05-20T10:44:58.580Z,8.03
2019-05-20T10:47:33.515Z,7.70
2019-05-20T10:50:06.311Z,6.53
2019-05-20T10:52:38.488Z,7.77
2019-05-20T10:55:11.944Z,7.70
2019-05-20T10:57:44.853Z,7.60
2019-05-20T11:00:17.992Z,7.60
2019-05-20T11:02:49.794Z,7.97
2019-05-20T11:05:23.814Z,7.60
2019-05-20T11:07:56.962Z,5.60
2019-05-20T11:10:29.732Z,6.90
2019-05-20T11:13:02.850Z,7.30
2019-05-20T11:15:35.772Z,7.40
2019-05-20T11:18:08.062Z,8.50
2019-05-20T11:20:39.584Z,8.70
2019-05-20T11:23:11.877Z,7.90
2019-05-20T11:25:44.749Z,6.43
2019-05-20T11:28:17.713Z,6.50
2019-05-20T11:30:53.277Z,6.70
2019-05-20T11:33:24.899Z,7.30
2019-05-20T11:35:57.786Z,5.97
2019-05-20T11:38:30.795Z,6.27
2019-05-20T11:41:02.830Z,6.20
2019-05-20T11:43:35.985Z,6.50
2019-05-20T11:46:08.850Z,5.77
2019-05-20T11:48:44.391Z,5.93
2019-05-20T11:51:16.926Z,5.83
2019-05-20T11:53:49.941Z,5.33
2019-05-20T11:56:21.446Z,5.50
2019-05-20T11:58:52.859Z,5.67
2019-05-20T12:01:25.930Z,6.43
2019-05-20T12:03:57.959Z,6.33
2019-05-20T12:06:30.031Z,6.67
2019-05-20T12:09:04.394Z,5.60
2019-05-20T12:11:37.948Z,6.73
2019-05-20T12:14:10.933Z,7.10
2019-05-20T12:16:44.014Z,6.70
2019-05-20T12:19:17.192Z,6.87
2019-05-20T12:21:51.027Z,7.10
2019-05-20T12:24:24.091Z,7.90
2019-05-20T12:26:59.627Z,8.67
2019-05-20T12:29:32.038Z,8.07
2019-05-20T12:32:05.363Z,6.90
2019-05-20T12:34:37.246Z,7.40
2019-05-20T12:37:08.643Z,8.20
2019-05-20T12:39:41.274Z,7.33
2019-05-20T12:42:14.547Z,7.00
2019-05-20T12:44:48.187Z,8.07
2019-05-20T12:47:20.204Z,5.97
2019-05-20T12:49:54.648Z,3.60
2019-05-20T12:52:26.050Z,2.90
2019-05-20T12:55:08.044Z,2.57
2019-05-20T12:57:33.466Z,2.70
2019-05-20T13:00:10.222Z,2.30
2019-05-20T13:02:42.476Z,2.60
2019-05-20T13:05:17.422Z,3.77
2019-05-20T13:07:52.224Z,3.00
2019-05-20T13:10:32.608Z,2.80
2019-05-20T13:13:11.252Z,3.27
2019-05-20T13:15:51.692Z,2.90
2019-05-20T13:18:27.693Z,2.60
2019-05-20T13:21:09.330Z,2.27
2019-05-20T13:23:58.664Z,2.40
2019-05-20T13:26:23.806Z,2.90
2019-05-20T13:28:59.485Z,3.03
2019-05-20T13:31:39.947Z,2.03
2019-05-20T13:34:18.052Z,1.70
2019-05-20T13:36:59.976Z,2.23
2019-05-20T13:39:34.177Z,1.77
2019-05-20T13:42:08.287Z,1.57
2019-05-20T13:44:40.608Z,2.13
2019-05-20T13:47:16.929Z,2.27
2019-05-20T13:49:49.291Z,2.10
2019-05-20T13:52:23.221Z,1.40
2019-05-20T13:54:59.028Z,1.47
2019-05-20T13:57:36.302Z,2.00
2019-05-20T14:00:10.592Z,2.07
2019-05-20T14:02:53.300Z,2.20
2019-05-20T14:05:28.241Z,1.83
2019-05-20T14:08:08.110Z,2.20
2019-05-20T14:10:43.415Z,2.90
2019-05-20T14:13:21.218Z,2.17
2019-05-20T14:16:02.034Z,3.17
2019-05-20T14:18:34.673Z,2.37
2019-05-20T14:21:07.986Z,2.60
2019-05-20T14:23:44.298Z,2.47
2019-05-20T14:26:19.309Z,2.00
2019-05-20T14:28:51.700Z,1.70
2019-05-20T14:31:27.719Z,1.40
2019-05-20T14:33:59.863Z,1.40
2019-05-20T14:36:40.021Z,1.50
2019-05-20T14:39:19.355Z,1.20
2019-05-20T14:41:53.469Z,1.17
2019-05-20T14:44:26.844Z,1.27
2019-05-20T14:46:59.891Z,1.40
2019-05-20T14:49:36.736Z,1.40
2019-05-20T14:52:10.131Z,1.33
2019-05-20T14:54:48.930Z,1.60
2019-05-20T14:57:22.588Z,1.60
2019-05-20T15:00:00.569Z,1.90
2019-05-20T15:02:32.930Z,1.50
2019-05-20T15:05:16.396Z,1.70
2019-05-20T15:07:50.469Z,1.17
2019-05-20T15:10:26.644Z,1.27
2019-05-20T15:12:59.902Z,1.40
2019-05-20T15:15:36.219Z,1.20
2019-05-20T15:18:10.028Z,1.43
2019-05-20T15:20:41.973Z,1.23
2019-05-20T15:23:14.868Z,1.33
2019-05-20T15:25:49.829Z,1.43
2019-05-20T15:28:29.905Z,1.53
2019-05-20T15:31:06.487Z,1.73
2019-05-20T15:33:49.943Z,1.33
2019-05-20T15:36:26.178Z,1.13
2019-05-20T15:38:59.680Z,1.57
2019-05-20T15:41:33.114Z,1.43
2019-05-20T15:44:06.273Z,1.03
2019-05-20T15:46:39.233Z,1.40
2019-05-20T15:49:12.122Z,1.80
2019-05-20T15:51:47.065Z,1.80
2019-05-20T15:54:20.298Z,1.43
2019-05-20T15:56:56.875Z,1.53
2019-05-20T15:59:45.012Z,1.63
2019-05-20T16:02:04.354Z,1.87
2019-05-20T16:04:38.346Z,1.60
2019-05-20T16:07:12.153Z,1.47
2019-05-20T16:09:45.877Z,1.70
2019-05-20T16:12:18.156Z,1.20
2019-05-20T16:14:51.609Z,1.40
2019-05-20T16:17:24.357Z,1.30
2019-05-20T16:19:58.714Z,1.57
2019-05-20T16:22:31.541Z,1.50
2019-05-20T16:25:08.455Z,1.30
2019-05-20T16:27:42.382Z,1.60
2019-05-20T16:30:14.559Z,1.50
2019-05-20T16:32:48.249Z,1.27
2019-05-20T16:35:21.995Z,1.60
2019-05-20T16:37:55.313Z,1.23
2019-05-20T16:40:29.327Z,1.53
2019-05-20T16:43:03.376Z,1.47
2019-05-20T16:45:36.530Z,1.40
2019-05-20T16:48:08.343Z,1.53
2019-05-20T16:50:43.906Z,1.70
2019-05-20T16:53:17.265Z,1.30
2019-05-20T16:55:51.355Z,1.57
2019-05-20T16:58:23.497Z,1.47
2019-05-20T17:00:57.708Z,1.33
2019-05-20T17:03:44.371Z,1.40
2019-05-20T17:06:17.531Z,1.40
2019-05-20T17:08:55.611Z,1.70
2019-05-20T17:11:32.743Z,1.50
2019-05-20T17:14:05.445Z,1.60
2019-05-20T17:16:38.403Z,1.57
2019-05-20T17:19:12.571Z,1.87
2019-05-20T17:21:46.607Z,1.13
2019-05-20T17:24:23.638Z,1.80
2019-05-20T17:26:57.334Z,2.40
2019-05-20T17:29:28.758Z,1.50
2019-05-20T17:32:00.460Z,1.37
2019-05-20T17:34:35.052Z,1.40
2019-05-20T17:37:06.472Z,1.13
2019-05-20T17:39:39.052Z,1.70
2019-05-20T17:42:11.622Z,1.60
2019-05-20T17:44:44.404Z,1.73
2019-05-20T17:47:17.599Z,1.87
2019-05-20T17:49:49.633Z,1.60
2019-05-20T17:52:24.384Z,1.67
2019-05-20T17:54:56.756Z,1.20
2019-05-20T17:57:30.577Z,1.53
2019-05-20T18:00:03.029Z,1.70
2019-05-20T18:02:35.010Z,1.70
2019-05-20T18:05:06.915Z,1.63
2019-05-20T18:07:38.839Z,2.20
2019-05-20T18:10:15.490Z,1.93
2019-05-20T18:12:47.887Z,2.00
2019-05-20T18:15:21.046Z,1.70
2019-05-20T18:17:53.819Z,1.83
2019-05-20T18:20:27.026Z,1.80
2019-05-20T18:23:00.797Z,2.20
2019-05-20T18:25:32.652Z,2.53
2019-05-20T18:28:04.898Z,2.47
2019-05-20T18:30:36.796Z,2.60
2019-05-20T18:33:10.024Z,3.20
2019-05-20T18:35:43.927Z,3.03
2019-05-20T18:38:17.869Z,2.57
2019-05-20T18:40:50.920Z,2.30
2019-05-20T18:43:23.868Z,2.20
2019-05-20T18:45:56.275Z,2.63
2019-05-20T18:48:30.131Z,2.57
2019-05-20T18:51:04.916Z,2.70
2019-05-20T18:53:38.855Z,3.10
2019-05-20T18:56:11.819Z,3.07
2019-05-20T18:58:44.901Z,2.63
2019-05-20T19:01:19.773Z,3.20
2019-05-20T19:03:53.980Z,2.73
2019-05-20T19:06:28.002Z,3.30
2019-05-20T19:09:02.052Z,3.13
2019-05-20T19:11:36.133Z,2.80
2019-05-20T19:14:09.985Z,3.83
2019-05-20T19:16:41.991Z,3.77
2019-05-20T19:19:15.107Z,3.20
2019-05-20T19:21:48.167Z,3.40
2019-05-20T19:24:21.106Z,3.67
2019-05-20T19:26:53.896Z,4.03
2019-05-20T19:29:27.046Z,3.40
2019-05-20T19:32:02.043Z,3.60
2019-05-20T19:34:34.142Z,3.63
2019-05-20T19:37:07.288Z,4.13
2019-05-20T19:39:41.155Z,3.23
2019-05-20T19:42:15.366Z,3.30
2019-05-20T19:44:49.434Z,3.50
2019-05-20T19:47:21.043Z,4.80
2019-05-20T19:49:53.166Z,3.70
2019-05-20T19:52:25.330Z,4.07
2019-05-20T19:54:58.326Z,3.77
2019-05-20T19:57:31.250Z,3.83
2019-05-20T20:00:04.484Z,4.33
2019-05-20T20:02:36.643Z,4.17
2019-05-20T20:05:12.190Z,4.33
2019-05-20T20:07:45.367Z,4.10
2019-05-20T20:10:18.634Z,4.93
2019-05-20T20:12:51.542Z,4.63
2019-05-20T20:15:25.425Z,4.40
2019-05-20T20:18:00.192Z,5.07
2019-05-20T20:20:33.440Z,4.60
2019-05-20T20:23:07.511Z,5.00
2019-05-20T20:25:39.277Z,5.37
2019-05-20T20:28:14.529Z,4.97
2019-05-20T20:30:49.050Z,5.00
2019-05-20T20:33:22.465Z,6.07
2019-05-20T20:35:55.638Z,5.33
2019-05-20T20:38:27.201Z,5.30
2019-05-20T20:41:03.206Z,4.90
2019-05-20T20:43:38.163Z,4.30
2019-05-20T20:46:12.591Z,5.20
2019-05-20T20:48:46.396Z,4.83
2019-05-20T20:51:20.443Z,4.30
2019-05-20T20:53:54.475Z,4.87
2019-05-20T20:56:27.496Z,4.80
2019-05-20T20:58:59.594Z,5.00
2019-05-20T21:01:33.535Z,4.53
2019-05-20T21:04:07.326Z,3.40
2019-05-20T21:06:40.043Z,4.93
2019-05-20T21:09:11.479Z,4.50
2019-05-20T21:11:44.761Z,4.63
2019-05-20T21:14:18.746Z,4.40
2019-05-20T21:16:54.955Z,5.53
2019-05-20T21:19:26.561Z,5.23
2019-05-20T21:21:59.637Z,5.23
2019-05-20T21:24:34.342Z,4.33
2019-05-20T21:27:06.957Z,4.20
2019-05-20T21:29:38.667Z,4.60
2019-05-20T21:32:11.719Z,4.33
2019-05-20T21:34:45.125Z,3.60
2019-05-20T21:37:18.703Z,4.00
2019-05-20T21:39:53.183Z,4.33
2019-05-20T21:42:24.765Z,3.60
2019-05-20T21:44:57.851Z,3.90
2019-05-20T21:47:29.830Z,4.07
2019-05-20T21:50:03.441Z,4.00
2019-05-20T21:52:36.801Z,3.30
2019-05-20T21:55:10.486Z,3.80
2019-05-20T21:57:43.685Z,3.93
2019-05-20T22:00:22.821Z,4.10
2019-05-20T22:02:56.193Z,3.30
2019-05-20T22:05:29.794Z,3.60
2019-05-20T22:08:04.093Z,3.80
2019-05-20T22:10:36.792Z,3.30
2019-05-20T22:13:08.914Z,3.57
2019-05-20T22:15:41.948Z,3.47
2019-05-20T22:18:14.873Z,3.50
2019-05-20T22:20:46.992Z,3.23
2019-05-20T22:23:24.871Z,3.77
2019-05-20T22:25:58.328Z,2.97
2019-05-20T22:28:31.888Z,3.57
2019-05-20T22:31:05.953Z,3.60
2019-05-20T22:33:42.269Z,3.57
2019-05-20T22:36:12.570Z,3.10
2019-05-20T22:38:45.794Z,3.53
2019-05-20T22:41:18.772Z,3.37
2019-05-20T22:43:51.159Z,2.70
2019-05-20T22:46:23.966Z,3.00
2019-05-20T22:48:55.946Z,2.57
2019-05-20T22:51:29.996Z,2.73
2019-05-20T22:54:03.269Z,2.70
2019-05-20T22:56:35.020Z,4.00
2019-05-20T22:59:08.134Z,3.27
2019-05-20T23:01:39.653Z,3.50
2019-05-20T23:04:12.020Z,3.73
2019-05-20T23:06:45.138Z,3.80
2019-05-20T23:09:18.110Z,3.70
2019-05-20T23:11:53.873Z,3.07
2019-05-20T23:14:27.183Z,2.93
2019-05-20T23:17:00.024Z,2.83
2019-05-20T23:19:32.204Z,2.50
2019-05-20T23:22:05.868Z,2.90
2019-05-20T23:24:38.099Z,2.67
2019-05-20T23:27:09.478Z,2.73
2019-05-20T23:29:44.980Z,2.50
2019-05-20T23:32:18.009Z,2.70
2019-05-20T23:34:50.570Z,2.57
2019-05-20T23:37:26.561Z,2.53
2019-05-20T23:40:00.180Z,3.07
2019-05-20T23:42:32.905Z,3.60
2019-05-20T23:45:04.497Z,2.90
2019-05-20T23:47:36.741Z,2.97
2019-05-20T23:50:09.307Z,3.20
2019-05-20T23:52:42.212Z,4.00
2019-05-20T23:55:13.747Z,3.47
2019-05-20T23:57:45.261Z,3.17
